createdAt,value
2023-04-28T00:01:43.692Z,6.67
2023-04-28T00:04:12.833Z,6.90
2023-04-28T00:06:41.802Z,6.93
2023-04-28T00:09:11.255Z,7.20
2023-04-28T00:11:40.962Z,6.80
2023-04-28T00:14:09.584Z,7.03
2023-04-28T00:16:38.249Z,6.80
2023-04-28T00:19:07.675Z,7.00
2023-04-28T00:21:36.261Z,7.13
2023-04-28T00:24:05.001Z,7.23
2023-04-28T00:26:33.569Z,6.97
2023-04-28T00:29:03.877Z,7.67
2023-04-28T00:31:32.558Z,7.47
2023-04-28T00:34:01.396Z,6.63
2023-04-28T00:36:32.261Z,6.50
2023-04-28T00:39:00.833Z,6.63
2023-04-28T00:41:29.773Z,7.40
2023-04-28T00:43:58.517Z,7.27
2023-04-28T00:46:32.124Z,6.60
2023-04-28T00:49:00.938Z,6.57
2023-04-28T00:51:29.459Z,6.80
2023-04-28T00:53:58.812Z,6.60
2023-04-28T00:56:27.826Z,6.10
2023-04-28T00:58:56.661Z,6.70
2023-04-28T01:01:25.582Z,6.73
2023-04-28T01:03:55.637Z,6.40
2023-04-28T01:06:25.849Z,7.13
2023-04-28T01:08:57.579Z,6.47
2023-04-28T01:11:26.334Z,7.57
2023-04-28T01:14:12.272Z,6.77
2023-04-28T01:16:43.221Z,6.47
2023-04-28T01:19:24.087Z,7.10
2023-04-28T01:21:54.362Z,6.70
2023-04-28T01:24:25.656Z,6.33
2023-04-28T01:26:54.804Z,7.13
2023-04-28T01:29:24.600Z,6.97
2023-04-28T01:31:54.264Z,6.77
2023-04-28T01:34:22.709Z,6.50
2023-04-28T01:36:51.281Z,7.17
2023-04-28T01:39:20.357Z,6.80
2023-04-28T01:41:49.985Z,7.40
2023-04-28T01:44:18.994Z,7.10
2023-04-28T01:46:51.518Z,7.27
2023-04-28T01:49:24.117Z,7.30
2023-04-28T01:51:52.710Z,7.40
2023-04-28T01:54:21.138Z,6.70
2023-04-28T01:56:50.787Z,7.00
2023-04-28T01:59:21.048Z,6.70
2023-04-28T02:01:49.700Z,6.83
2023-04-28T02:04:21.436Z,6.50
2023-04-28T02:06:49.942Z,7.10
2023-04-28T02:09:18.705Z,6.73
2023-04-28T02:11:47.355Z,6.97
2023-04-28T02:14:17.632Z,7.00
2023-04-28T02:16:46.567Z,6.67
2023-04-28T02:19:16.025Z,6.50
2023-04-28T02:21:44.816Z,6.70
2023-04-28T02:24:15.946Z,6.47
2023-04-28T02:26:44.840Z,6.43
2023-04-28T02:29:13.497Z,6.23
2023-04-28T02:31:43.200Z,6.23
2023-04-28T02:34:11.805Z,6.43
2023-04-28T02:36:41.184Z,6.70
2023-04-28T02:39:10.203Z,6.33
2023-04-28T02:41:39.100Z,6.80
2023-04-28T02:44:08.085Z,6.60
2023-04-28T02:46:36.801Z,6.20
2023-04-28T02:49:07.798Z,6.60
2023-04-28T02:51:36.616Z,7.17
2023-04-28T02:54:05.394Z,6.30
2023-04-28T02:56:34.689Z,6.53
2023-04-28T02:59:04.976Z,7.13
2023-04-28T03:01:33.618Z,6.30
2023-04-28T03:04:02.411Z,6.30
2023-04-28T03:06:32.898Z,6.93
2023-04-28T03:09:02.350Z,6.77
2023-04-28T03:11:30.622Z,6.70
2023-04-28T03:13:59.354Z,7.13
2023-04-28T03:16:28.627Z,7.00
2023-04-28T03:18:57.798Z,6.23
2023-04-28T03:21:27.974Z,6.27
2023-04-28T03:23:58.400Z,6.40
2023-04-28T03:26:27.201Z,6.53
2023-04-28T03:28:57.010Z,6.83
2023-04-28T03:31:26.252Z,6.40
2023-04-28T03:33:54.938Z,6.80
2023-04-28T03:36:23.928Z,6.17
2023-04-28T03:38:52.606Z,7.00
2023-04-28T03:41:23.224Z,7.50
2023-04-28T03:44:30.034Z,6.90
2023-04-28T03:47:01.443Z,7.10
2023-04-28T03:49:31.295Z,7.07
2023-04-28T03:52:00.323Z,7.27
2023-04-28T03:54:29.054Z,6.47
2023-04-28T03:57:02.236Z,6.13
2023-04-28T03:59:32.573Z,7.43
2023-04-28T04:02:01.359Z,6.60
2023-04-28T04:04:30.490Z,6.83
2023-04-28T04:06:59.881Z,6.30
2023-04-28T04:09:28.786Z,6.43
2023-04-28T04:11:57.468Z,6.47
2023-04-28T04:14:27.609Z,6.73
2023-04-28T04:16:56.934Z,6.47
2023-04-28T04:19:27.583Z,6.77
2023-04-28T04:21:57.081Z,5.90
2023-04-28T04:24:25.819Z,6.93
2023-04-28T04:26:54.521Z,6.60
2023-04-28T04:29:34.593Z,6.57
2023-04-28T04:32:08.570Z,6.67
2023-04-28T04:34:37.505Z,6.87
2023-04-28T04:37:06.681Z,7.17
2023-04-28T04:39:38.114Z,6.80
2023-04-28T04:42:22.677Z,7.03
2023-04-28T04:45:13.257Z,7.73
2023-04-28T04:47:43.979Z,6.90
2023-04-28T04:50:13.619Z,7.27
2023-04-28T04:52:42.582Z,6.97
2023-04-28T04:55:12.267Z,7.50
2023-04-28T04:57:43.047Z,7.07
2023-04-28T05:00:33.692Z,7.10
2023-04-28T05:03:04.237Z,6.90
2023-04-28T05:05:33.274Z,7.00
2023-04-28T05:08:09.391Z,6.77
2023-04-28T05:10:37.758Z,6.90
2023-04-28T05:13:08.928Z,7.03
2023-04-28T05:15:39.099Z,6.97
2023-04-28T05:18:30.501Z,7.57
2023-04-28T05:20:59.226Z,7.63
2023-04-28T05:23:28.553Z,7.30
2023-04-28T05:25:57.409Z,7.97
2023-04-28T05:28:26.343Z,7.47
2023-04-28T05:31:01.494Z,7.63
2023-04-28T05:33:30.251Z,7.87
2023-04-28T05:35:59.757Z,7.30
2023-04-28T05:38:28.664Z,7.43
2023-04-28T05:40:58.627Z,7.77
2023-04-28T05:43:27.197Z,7.53
2023-04-28T05:45:56.124Z,7.37
2023-04-28T05:48:26.280Z,7.47
2023-04-28T05:50:56.286Z,7.73
2023-04-28T05:53:25.761Z,7.97
2023-04-28T05:55:54.715Z,7.70
2023-04-28T05:58:23.327Z,7.80
2023-04-28T06:00:52.024Z,7.63
2023-04-28T06:03:20.790Z,7.33
2023-04-28T06:05:51.765Z,8.10
2023-04-28T06:08:21.287Z,9.10
2023-04-28T06:10:49.928Z,8.53
2023-04-28T06:13:18.646Z,8.93
2023-04-28T06:15:47.381Z,9.70
2023-04-28T06:18:17.084Z,9.57
2023-04-28T06:20:46.311Z,10.30
2023-04-28T06:23:16.433Z,9.63
2023-04-28T06:25:48.085Z,10.97
2023-04-28T06:28:17.126Z,11.70
2023-04-28T06:30:46.108Z,11.77
2023-04-28T06:33:14.777Z,11.17
2023-04-28T06:35:43.183Z,11.73
2023-04-28T06:38:11.816Z,12.17
2023-04-28T06:40:42.082Z,11.03
2023-04-28T06:43:11.134Z,11.80
2023-04-28T06:45:45.197Z,11.73
2023-04-28T06:48:14.066Z,11.90
2023-04-28T06:50:43.681Z,11.43
2023-04-28T06:53:13.270Z,11.23
2023-04-28T06:55:43.727Z,11.63
2023-04-28T06:58:12.447Z,12.20
2023-04-28T07:00:41.113Z,12.33
2023-04-28T07:03:10.094Z,12.83
2023-04-28T07:05:39.042Z,12.17
2023-04-28T07:08:08.088Z,13.27
2023-04-28T07:10:36.880Z,12.73
2023-04-28T07:13:06.551Z,11.77
2023-04-28T07:15:34.881Z,12.60
2023-04-28T07:18:03.747Z,13.00
2023-04-28T07:20:32.398Z,11.93
2023-04-28T07:23:01.581Z,13.40
2023-04-28T07:25:30.262Z,13.00
2023-04-28T07:27:59.011Z,13.63
2023-04-28T07:30:29.132Z,12.80
2023-04-28T07:32:58.446Z,13.77
2023-04-28T07:35:27.564Z,13.17
2023-04-28T07:37:57.946Z,13.50
2023-04-28T07:40:26.649Z,13.50
2023-04-28T07:42:55.387Z,12.90
2023-04-28T07:45:24.096Z,12.87
2023-04-28T07:47:54.255Z,12.57
2023-04-28T07:50:23.442Z,13.67
2023-04-28T07:52:52.172Z,12.57
2023-04-28T07:55:20.892Z,12.80
2023-04-28T07:57:50.011Z,13.83
2023-04-28T08:00:19.400Z,14.87
2023-04-28T08:02:48.469Z,14.90
2023-04-28T08:05:19.228Z,14.47
2023-04-28T08:07:48.026Z,15.40
2023-04-28T08:10:16.711Z,15.23
2023-04-28T08:12:46.296Z,15.83
2023-04-28T08:15:16.653Z,16.80
2023-04-28T08:17:46.778Z,15.33
2023-04-28T08:20:20.132Z,17.23
2023-04-28T08:22:51.824Z,15.57
2023-04-28T08:25:20.629Z,16.03
2023-04-28T08:27:49.374Z,13.63
2023-04-28T08:30:17.955Z,14.03
2023-04-28T08:32:46.636Z,13.67
2023-04-28T08:35:15.780Z,13.53
2023-04-28T08:37:45.575Z,13.53
2023-04-28T08:40:15.984Z,14.20
2023-04-28T08:42:46.011Z,14.00
2023-04-28T08:45:16.696Z,13.77
2023-04-28T08:47:47.686Z,13.20
2023-04-28T08:50:17.143Z,13.47
2023-04-28T08:52:45.883Z,12.23
2023-04-28T08:55:17.343Z,12.43
2023-04-28T08:57:47.866Z,13.87
2023-04-28T09:00:17.435Z,12.40
2023-04-28T09:02:46.458Z,12.20
2023-04-28T09:05:16.152Z,12.40
2023-04-28T09:07:48.895Z,12.83
2023-04-28T09:10:21.118Z,12.30
2023-04-28T09:12:52.666Z,12.03
2023-04-28T09:15:31.148Z,12.83
2023-04-28T09:18:02.146Z,13.90
2023-04-28T09:20:32.601Z,14.20
2023-04-28T09:23:16.352Z,13.73
2023-04-28T09:26:02.075Z,14.33
2023-04-28T09:28:31.096Z,14.67
2023-04-28T09:30:59.419Z,14.60
2023-04-28T09:33:28.463Z,14.77
2023-04-28T09:35:57.635Z,14.60
2023-04-28T09:38:27.066Z,14.90
2023-04-28T09:40:58.355Z,15.10
2023-04-28T09:43:30.461Z,14.27
2023-04-28T09:46:00.824Z,13.37
2023-04-28T09:48:32.151Z,13.87
2023-04-28T09:51:03.110Z,12.67
2023-04-28T09:53:34.064Z,12.93
2023-04-28T09:56:05.267Z,12.70
2023-04-28T09:58:40.108Z,12.90
2023-04-28T10:01:12.920Z,12.27
2023-04-28T10:03:42.816Z,13.87
2023-04-28T10:06:11.649Z,14.47
2023-04-28T10:08:41.473Z,14.33
2023-04-28T10:11:11.098Z,14.60
2023-04-28T10:13:41.984Z,15.07
2023-04-28T10:16:12.335Z,15.13
2023-04-28T10:18:41.588Z,14.87
2023-04-28T10:21:11.308Z,16.13
2023-04-28T10:24:00.693Z,15.43
2023-04-28T10:27:03.245Z,15.40
2023-04-28T10:29:34.624Z,16.63
2023-04-28T10:32:23.566Z,15.40
2023-04-28T10:34:52.734Z,20.00
2023-04-28T10:37:21.776Z,17.60
2023-04-28T10:40:29.795Z,14.60
2023-04-28T10:42:58.606Z,15.37
2023-04-28T10:46:06.206Z,15.07
2023-04-28T10:49:08.544Z,13.13
2023-04-28T10:51:38.088Z,12.70
2023-04-28T10:54:19.236Z,12.63
2023-04-28T10:57:17.407Z,11.60
2023-04-28T10:59:47.642Z,10.70
2023-04-28T11:02:44.521Z,10.70
2023-04-28T11:05:19.422Z,10.67
2023-04-28T11:08:30.967Z,8.93
2023-04-28T11:11:24.173Z,9.43
2023-04-28T11:13:53.986Z,9.57
2023-04-28T11:16:25.733Z,9.77
2023-04-28T11:19:06.121Z,9.83
2023-04-28T11:21:35.187Z,9.25
2023-04-28T11:24:11.636Z,7.90
2023-04-28T11:26:40.242Z,8.90
2023-04-28T11:29:09.278Z,8.50
2023-04-28T11:31:38.464Z,8.68
2023-04-28T11:34:14.447Z,8.15
2023-04-28T11:36:44.337Z,6.95
2023-04-28T11:39:15.598Z,5.72
2023-04-28T11:41:46.195Z,6.25
2023-04-28T11:44:15.995Z,6.32
2023-04-28T11:46:51.052Z,6.47
2023-04-28T11:49:21.968Z,5.82
2023-04-28T11:51:50.786Z,5.40
2023-04-28T11:54:24.005Z,5.68
2023-04-28T11:56:54.151Z,4.97
2023-04-28T11:59:27.410Z,4.65
2023-04-28T12:01:59.300Z,4.63
2023-04-28T12:04:32.020Z,4.97
2023-04-28T12:07:03.452Z,5.53
2023-04-28T12:09:33.121Z,4.95
2023-04-28T12:12:04.697Z,5.20
2023-04-28T12:14:35.630Z,6.38
2023-04-28T12:17:05.226Z,6.85
2023-04-28T12:19:46.643Z,5.82
2023-04-28T12:22:17.581Z,6.53
2023-04-28T12:24:46.645Z,6.68
2023-04-28T12:27:21.869Z,7.03
2023-04-28T12:29:51.008Z,7.93
2023-04-28T12:32:20.353Z,7.82
2023-04-28T12:34:51.404Z,7.57
2023-04-28T12:37:19.777Z,7.45
2023-04-28T12:39:48.439Z,8.02
2023-04-28T12:42:16.810Z,8.25
2023-04-28T12:44:45.412Z,8.75
2023-04-28T12:47:13.767Z,8.40
2023-04-28T12:49:42.491Z,7.75
2023-04-28T12:52:12.322Z,7.43
2023-04-28T12:54:46.901Z,8.05
2023-04-28T12:57:15.957Z,7.53
2023-04-28T12:59:44.782Z,7.30
2023-04-28T13:02:14.772Z,7.80
2023-04-28T13:04:46.026Z,8.30
2023-04-28T13:07:16.988Z,8.40
2023-04-28T13:09:47.672Z,8.93
2023-04-28T13:12:17.069Z,9.55
2023-04-28T13:14:45.798Z,9.05
2023-04-28T13:17:14.464Z,9.02
2023-04-28T13:19:43.167Z,8.55
2023-04-28T13:22:12.416Z,10.95
2023-04-28T13:24:42.064Z,10.00
2023-04-28T13:27:11.048Z,9.73
2023-04-28T13:29:40.170Z,9.75
2023-04-28T13:32:09.001Z,11.18
2023-04-28T13:34:38.416Z,10.20
2023-04-28T13:37:07.239Z,8.35
2023-04-28T13:39:35.897Z,9.60
2023-04-28T13:42:06.709Z,9.35
2023-04-28T13:44:35.390Z,11.05
2023-04-28T13:47:06.552Z,13.10
2023-04-28T13:49:35.224Z,9.90
2023-04-28T13:52:04.236Z,8.55
2023-04-28T13:54:32.960Z,8.60
2023-04-28T13:57:01.638Z,9.32
2023-04-28T13:59:31.566Z,8.75
2023-04-28T14:02:00.509Z,8.07
2023-04-28T14:04:29.294Z,8.13
2023-04-28T14:06:58.476Z,8.43
2023-04-28T14:09:27.150Z,7.55
2023-04-28T14:11:56.768Z,8.05
2023-04-28T14:14:25.312Z,7.80
2023-04-28T14:16:55.353Z,7.57
2023-04-28T14:19:26.804Z,7.25
2023-04-28T14:21:55.489Z,7.72
2023-04-28T14:24:24.223Z,7.10
2023-04-28T14:26:53.784Z,6.80
2023-04-28T14:29:22.456Z,6.38
2023-04-28T14:31:51.138Z,6.95
2023-04-28T14:34:20.938Z,6.88
2023-04-28T14:36:49.629Z,7.13
2023-04-28T14:39:18.527Z,7.38
2023-04-28T14:41:47.450Z,6.50
2023-04-28T14:44:16.074Z,6.10
2023-04-28T14:46:44.903Z,6.53
2023-04-28T14:49:13.802Z,6.63
2023-04-28T14:51:43.666Z,6.07
2023-04-28T14:54:12.418Z,6.38
2023-04-28T14:56:41.078Z,8.05
2023-04-28T14:59:10.452Z,16.52
2023-04-28T15:01:39.282Z,6.50
2023-04-28T15:04:08.421Z,5.60
2023-04-28T15:06:37.341Z,4.70
2023-04-28T15:09:07.211Z,7.00
2023-04-28T15:11:35.524Z,7.72
2023-04-28T15:14:04.276Z,7.07
2023-04-28T15:16:33.089Z,8.10
2023-04-28T15:19:01.437Z,6.63
2023-04-28T15:21:31.142Z,5.47
2023-04-28T15:23:59.873Z,4.47
2023-04-28T15:26:30.180Z,5.13
2023-04-28T15:28:59.484Z,3.88
2023-04-28T15:31:28.566Z,5.30
2023-04-28T15:33:57.906Z,4.43
2023-04-28T15:36:26.749Z,4.18
2023-04-28T15:38:56.220Z,4.05
2023-04-28T15:41:24.960Z,3.50
2023-04-28T15:43:55.954Z,4.35
2023-04-28T15:46:25.087Z,4.40
2023-04-28T15:48:55.082Z,4.32
2023-04-28T15:51:23.835Z,4.20
2023-04-28T15:53:52.212Z,4.15
2023-04-28T15:56:21.252Z,4.43
2023-04-28T15:58:50.023Z,4.25
2023-04-28T16:01:20.131Z,4.50
2023-04-28T16:03:48.982Z,5.43
2023-04-28T16:06:17.381Z,5.70
2023-04-28T16:08:46.041Z,5.38
2023-04-28T16:11:17.841Z,5.32
2023-04-28T16:13:46.819Z,5.63
2023-04-28T16:16:15.178Z,5.13
2023-04-28T16:18:47.141Z,4.75
2023-04-28T16:21:17.353Z,4.25
2023-04-28T16:23:46.577Z,4.40
2023-04-28T16:26:15.243Z,3.63
2023-04-28T16:28:44.396Z,4.28
2023-04-28T16:31:13.151Z,4.68
2023-04-28T16:33:42.619Z,5.03
2023-04-28T16:36:12.615Z,7.47
2023-04-28T16:38:41.487Z,7.75
2023-04-28T16:41:10.113Z,7.70
2023-04-28T16:43:38.790Z,5.97
2023-04-28T16:46:08.283Z,6.00
2023-04-28T16:48:36.996Z,5.75
2023-04-28T16:51:08.285Z,5.18
2023-04-28T16:53:39.008Z,4.25
2023-04-28T16:56:09.784Z,3.78
2023-04-28T16:58:39.437Z,2.90
2023-04-28T17:01:08.248Z,3.22
2023-04-28T17:03:42.359Z,3.08
2023-04-28T17:06:11.487Z,4.03
2023-04-28T17:08:42.266Z,3.35
2023-04-28T17:11:11.099Z,3.45
2023-04-28T17:13:39.811Z,3.25
2023-04-28T17:16:09.036Z,3.05
2023-04-28T17:18:38.478Z,3.15
2023-04-28T17:21:07.904Z,2.67
2023-04-28T17:23:36.837Z,3.05
2023-04-28T17:26:06.922Z,3.08
2023-04-28T17:28:35.724Z,2.30
2023-04-28T17:31:04.477Z,2.17
2023-04-28T17:33:33.176Z,2.67
2023-04-28T17:36:04.060Z,2.55
2023-04-28T17:38:32.525Z,2.40
2023-04-28T17:41:01.417Z,2.78
2023-04-28T17:43:31.924Z,3.55
2023-04-28T17:46:01.968Z,6.85
2023-04-28T17:48:31.150Z,2.83
2023-04-28T17:50:59.735Z,3.08
2023-04-28T17:53:28.600Z,3.08
2023-04-28T17:55:57.233Z,4.30
2023-04-28T17:58:26.248Z,3.78
2023-04-28T18:01:02.469Z,3.10
2023-04-28T18:03:33.241Z,3.08
2023-04-28T18:06:07.685Z,2.50
2023-04-28T18:08:37.733Z,3.17
2023-04-28T18:11:07.034Z,3.65
2023-04-28T18:13:36.516Z,2.60
2023-04-28T18:16:07.170Z,1.55
2023-04-28T18:18:36.841Z,2.45
2023-04-28T18:21:05.727Z,1.70
2023-04-28T18:23:34.443Z,2.17
2023-04-28T18:26:03.143Z,2.35
2023-04-28T18:28:31.553Z,2.38
2023-04-28T18:30:59.364Z,1.70
2023-04-28T18:33:29.187Z,1.90
2023-04-28T18:36:02.267Z,1.95
2023-04-28T18:38:31.706Z,2.58
2023-04-28T18:41:00.751Z,1.92
2023-04-28T18:43:29.444Z,2.38
2023-04-28T18:46:02.616Z,1.70
2023-04-28T18:48:33.479Z,1.40
2023-04-28T18:51:03.098Z,1.75
2023-04-28T18:53:31.840Z,2.30
2023-04-28T18:56:00.963Z,3.40
2023-04-28T18:58:29.722Z,5.18
2023-04-28T19:00:58.824Z,1.90
2023-04-28T19:03:28.198Z,2.67
2023-04-28T19:05:57.971Z,6.93
2023-04-28T19:08:26.640Z,4.85
2023-04-28T19:10:55.329Z,9.57
2023-04-28T19:13:24.199Z,9.40
2023-04-28T19:15:54.267Z,3.45
2023-04-28T19:18:22.937Z,9.48
2023-04-28T19:20:52.223Z,15.43
2023-04-28T19:23:22.207Z,2.40
2023-04-28T19:25:53.486Z,4.10
2023-04-28T19:28:23.107Z,2.00
2023-04-28T19:30:51.815Z,1.67
2023-04-28T19:33:20.679Z,2.28
2023-04-28T19:35:49.587Z,3.15
2023-04-28T19:38:18.927Z,2.03
2023-04-28T19:40:48.665Z,1.90
2023-04-28T19:43:17.597Z,1.40
2023-04-28T19:45:46.718Z,1.73
2023-04-28T19:48:15.138Z,2.33
2023-04-28T19:50:44.674Z,2.53
2023-04-28T19:53:13.044Z,2.40
2023-04-28T19:55:41.795Z,2.40
2023-04-28T19:58:12.152Z,2.38
2023-04-28T20:00:41.222Z,1.80
2023-04-28T20:03:10.261Z,1.80
2023-04-28T20:05:39.965Z,1.90
2023-04-28T20:08:08.746Z,1.98
2023-04-28T20:10:37.538Z,1.60
2023-04-28T20:13:07.010Z,1.57
2023-04-28T20:15:37.786Z,1.87
2023-04-28T20:18:06.619Z,2.80
2023-04-28T20:20:35.847Z,1.90
2023-04-28T20:23:04.435Z,1.93
2023-04-28T20:25:35.994Z,2.10
2023-04-28T20:28:05.493Z,2.13
2023-04-28T20:30:34.118Z,2.57
2023-04-28T20:33:04.191Z,2.20
2023-04-28T20:35:33.198Z,2.33
2023-04-28T20:38:02.304Z,2.50
2023-04-28T20:40:31.384Z,2.30
2023-04-28T20:43:01.703Z,3.80
2023-04-28T20:45:31.570Z,5.20
2023-04-28T20:47:59.884Z,6.23
2023-04-28T20:50:33.344Z,6.60
2023-04-28T20:53:02.270Z,7.90
2023-04-28T20:55:30.984Z,7.55
2023-04-28T20:57:59.677Z,7.27
2023-04-28T21:00:28.564Z,6.80
2023-04-28T21:02:57.631Z,5.50
2023-04-28T21:05:26.595Z,5.30
2023-04-28T21:07:56.762Z,4.87
2023-04-28T21:10:25.324Z,4.20
2023-04-28T21:12:54.284Z,4.37
2023-04-28T21:15:23.346Z,3.80
2023-04-28T21:17:52.130Z,3.50
2023-04-28T21:20:20.862Z,4.27
2023-04-28T21:22:49.946Z,3.80
2023-04-28T21:25:20.464Z,3.27
2023-04-28T21:27:49.282Z,3.60
2023-04-28T21:30:18.205Z,3.80
2023-04-28T21:32:47.958Z,3.30
2023-04-28T21:35:17.418Z,3.00
2023-04-28T21:37:46.407Z,2.40
2023-04-28T21:40:16.272Z,3.03
2023-04-28T21:42:47.553Z,2.60
2023-04-28T21:45:16.298Z,2.90
2023-04-28T21:47:45.024Z,2.90
2023-04-28T21:50:13.854Z,2.80
2023-04-28T21:52:42.337Z,3.20
2023-04-28T21:55:11.451Z,3.07
2023-04-28T21:57:40.235Z,3.23
2023-04-28T22:00:13.099Z,3.23
2023-04-28T22:02:45.381Z,3.30
2023-04-28T22:05:15.984Z,3.10
2023-04-28T22:07:44.908Z,3.40
2023-04-28T22:10:14.362Z,3.23
2023-04-28T22:12:43.314Z,3.20
2023-04-28T22:15:13.648Z,3.30
2023-04-28T22:17:43.279Z,4.17
2023-04-28T22:20:12.904Z,3.90
2023-04-28T22:22:42.402Z,4.13
2023-04-28T22:25:11.640Z,3.67
2023-04-28T22:27:40.549Z,3.23
2023-04-28T22:30:10.768Z,3.30
2023-04-28T22:32:44.676Z,3.33
2023-04-28T22:35:13.878Z,3.30
2023-04-28T22:37:43.577Z,3.13
2023-04-28T22:40:12.659Z,3.27
2023-04-28T22:42:42.168Z,3.00
2023-04-28T22:45:12.630Z,3.50
2023-04-28T22:47:43.229Z,3.20
2023-04-28T22:50:12.775Z,2.90
2023-04-28T22:52:41.862Z,3.23
2023-04-28T22:55:11.722Z,3.00
2023-04-28T22:57:40.452Z,3.30
2023-04-28T23:00:10.477Z,2.60
2023-04-28T23:02:39.295Z,2.73
2023-04-28T23:05:10.102Z,2.47
2023-04-28T23:07:38.753Z,2.27
2023-04-28T23:10:11.500Z,2.27
2023-04-28T23:12:41.439Z,2.20
2023-04-28T23:15:10.988Z,1.80
2023-04-28T23:17:40.717Z,1.60
2023-04-28T23:20:12.796Z,1.93
2023-04-28T23:22:41.452Z,2.03
2023-04-28T23:25:11.162Z,1.80
2023-04-28T23:27:39.839Z,2.10
2023-04-28T23:30:10.625Z,2.00
2023-04-28T23:32:39.593Z,1.90
2023-04-28T23:35:11.332Z,1.90
2023-04-28T23:37:39.960Z,1.88
2023-04-28T23:40:09.874Z,1.77
2023-04-28T23:42:38.521Z,1.92
2023-04-28T23:45:08.446Z,1.90
2023-04-28T23:47:37.407Z,2.15
2023-04-28T23:50:06.739Z,2.30
2023-04-28T23:52:36.467Z,2.30
2023-04-28T23:55:05.492Z,2.10
2023-04-28T23:57:34.117Z,2.00
